Anvil, Mississippi
Current Conditions -  °F | °C
As of 5:35 AM on Saturday 20 Dec 2014 (Local Time) from KCRX Reporting Station
Clear Clear  
Wind Chill: 34°   Ceiling: Unl
Heat Index: 34°   Visibility: 9mi
Dew Point: 30°   Wind: 0mph
Humidity: 87%   Direction: NA
Pressure: 30.23"   Gusts: NA
Location:  34.9009°N, 88.9211°W
Report Text: KCRX 201135Z AUTO 00000KT 9SM CLR 01/M01 A3023 RMK AO2
Loading
Personal Weather Stations






























Interactive Weather Map New forecast layout! Learn more

10-Day Weather Forecast

Advertisements
Track Severe Weather on mobile